Terminal Aerodrome Forecast
Issued by NWS

Home | Current Version | Previous Version | Graphics & Text | Print | Product List | Glossary On
Versions: 1 2 3 4 5 6 7 8 9 10 11 12 13 14 15 16 17 18 19 20 21 22 23 24 25 26 27 28 29 30 31 32 33
000
FTUS43 KLOT 230200 AAA
TAFORD
TAF AMD
KORD 230256Z 2303/2406 16004KT P6SM FEW250
     FM231600 19010KT P6SM BKN250
     FM232200 20008KT P6SM -SHRA SCT025 BKN040 OVC060
     FM240200 24006KT P6SM BKN025 OVC040=

USA.gov is the U.S. government's official web portal to all federal, state and local government web resources and services.